createdAt,value
2023-03-31T00:00:33.847Z,11.06
2023-03-31T00:03:02.772Z,11.05
2023-03-31T00:05:33.305Z,11.06
2023-03-31T00:08:02.455Z,11.06
2023-03-31T00:10:32.052Z,11.06
2023-03-31T00:12:59.909Z,11.04
2023-03-31T00:15:28.217Z,11.03
2023-03-31T00:18:00.345Z,11.02
2023-03-31T00:20:28.445Z,10.98
2023-03-31T00:22:57.580Z,10.96
2023-03-31T00:25:26.683Z,10.95
2023-03-31T00:27:55.122Z,10.93
2023-03-31T00:30:22.783Z,10.95
2023-03-31T00:32:50.664Z,10.95
2023-03-31T00:35:19.107Z,10.93
2023-03-31T00:37:47.174Z,10.91
2023-03-31T00:40:15.287Z,10.92
2023-03-31T00:42:46.415Z,10.90
2023-03-31T00:45:29.871Z,10.93
2023-03-31T00:48:10.036Z,10.94
2023-03-31T00:50:45.871Z,10.98
2023-03-31T00:53:18.746Z,11.01
2023-03-31T00:55:51.045Z,11.11
2023-03-31T00:58:22.770Z,11.12
2023-03-31T01:00:52.990Z,11.09
2023-03-31T01:03:22.688Z,11.09
2023-03-31T01:05:54.700Z,11.20
2023-03-31T01:08:27.043Z,11.51
2023-03-31T01:10:57.724Z,11.90
2023-03-31T01:13:28.133Z,12.22
2023-03-31T01:15:56.290Z,12.54
2023-03-31T01:18:27.908Z,12.56
2023-03-31T01:21:31.575Z,12.59
2023-03-31T01:24:39.979Z,12.61
2023-03-31T01:27:38.206Z,12.59
2023-03-31T01:30:34.331Z,12.57
2023-03-31T01:33:20.601Z,12.61
2023-03-31T01:36:22.365Z,12.59
2023-03-31T01:39:28.264Z,12.61
2023-03-31T01:42:03.993Z,12.64
2023-03-31T01:44:40.355Z,12.67
2023-03-31T01:47:18.300Z,12.57
2023-03-31T01:49:52.811Z,12.53
2023-03-31T01:52:24.134Z,12.52
2023-03-31T01:54:58.256Z,12.50
2023-03-31T01:57:32.462Z,12.43
2023-03-31T02:00:07.207Z,12.38
2023-03-31T02:02:46.210Z,12.36
2023-03-31T02:05:18.509Z,12.36
2023-03-31T02:07:50.822Z,12.36
2023-03-31T02:10:20.559Z,12.30
2023-03-31T02:12:52.168Z,12.28
2023-03-31T02:15:23.974Z,12.19
2023-03-31T02:17:56.526Z,12.21
2023-03-31T02:20:24.598Z,12.17
2023-03-31T02:22:56.489Z,12.19
2023-03-31T02:25:29.425Z,12.19
2023-03-31T02:28:03.280Z,12.21
2023-03-31T02:30:39.972Z,12.16
2023-03-31T02:33:08.237Z,12.11
2023-03-31T02:35:36.746Z,12.08
2023-03-31T02:38:06.751Z,12.06
2023-03-31T02:40:34.663Z,11.98
2023-03-31T02:43:03.829Z,11.91
2023-03-31T02:45:40.766Z,11.84
2023-03-31T02:48:14.575Z,11.78
2023-03-31T02:51:02.300Z,11.61
2023-03-31T02:53:44.524Z,11.42
2023-03-31T02:56:36.044Z,11.35
2023-03-31T02:59:24.273Z,11.27
2023-03-31T03:02:08.880Z,11.25
2023-03-31T03:04:54.919Z,11.16
2023-03-31T03:07:29.098Z,11.01
2023-03-31T03:10:04.119Z,10.97
2023-03-31T03:12:37.424Z,10.96
2023-03-31T03:15:13.171Z,10.95
2023-03-31T03:17:44.568Z,10.94
2023-03-31T03:20:13.985Z,10.83
2023-03-31T03:22:42.037Z,10.73
2023-03-31T03:25:12.796Z,10.67
2023-03-31T03:27:41.260Z,10.69
2023-03-31T03:30:12.782Z,10.68
2023-03-31T03:32:41.337Z,10.66
2023-03-31T03:35:09.967Z,10.63
2023-03-31T03:37:37.977Z,10.58
2023-03-31T03:40:06.836Z,10.54
2023-03-31T03:42:35.036Z,10.47
2023-03-31T03:45:02.834Z,10.36
2023-03-31T03:47:31.795Z,10.29
2023-03-31T03:49:59.428Z,10.22
2023-03-31T03:52:27.077Z,10.19
2023-03-31T03:54:54.737Z,10.18
2023-03-31T03:57:22.906Z,10.20
2023-03-31T03:59:50.707Z,10.19
2023-03-31T04:02:18.511Z,10.20
2023-03-31T04:04:47.865Z,10.24
2023-03-31T04:07:15.877Z,10.28
2023-03-31T04:09:43.594Z,10.33
2023-03-31T04:12:11.277Z,10.34
2023-03-31T04:14:38.948Z,10.30
2023-03-31T04:17:06.684Z,10.32
2023-03-31T04:19:34.584Z,10.29
2023-03-31T04:22:04.900Z,10.30
2023-03-31T04:24:32.978Z,10.30
2023-03-31T04:27:02.732Z,10.32
2023-03-31T04:29:33.747Z,10.29
2023-03-31T04:32:02.177Z,10.30
2023-03-31T04:34:35.065Z,10.31
2023-03-31T04:37:04.633Z,10.38
2023-03-31T04:39:32.301Z,10.39
2023-03-31T04:42:00.975Z,10.38
2023-03-31T04:44:29.580Z,10.37
2023-03-31T04:46:58.844Z,10.38
2023-03-31T04:49:26.621Z,10.40
2023-03-31T04:51:54.409Z,10.43
2023-03-31T04:54:23.639Z,10.44
2023-03-31T04:56:51.326Z,10.42
2023-03-31T04:59:19.076Z,10.41
2023-03-31T05:01:46.976Z,10.45
2023-03-31T05:04:14.801Z,10.39
2023-03-31T05:06:42.609Z,10.37
2023-03-31T05:09:10.669Z,10.38
2023-03-31T05:11:39.806Z,10.34
2023-03-31T05:14:07.586Z,10.33
2023-03-31T05:16:35.954Z,10.27
2023-03-31T05:19:03.826Z,10.31
2023-03-31T05:21:31.775Z,10.32
2023-03-31T05:23:59.626Z,10.32
2023-03-31T05:26:27.860Z,10.33
2023-03-31T05:28:57.228Z,10.35
2023-03-31T05:31:25.092Z,10.34
2023-03-31T05:33:52.824Z,10.26
2023-03-31T05:36:23.468Z,10.28
2023-03-31T05:38:52.363Z,10.29
2023-03-31T05:41:20.337Z,10.20
2023-03-31T05:43:49.080Z,10.13
2023-03-31T05:46:18.774Z,10.08
2023-03-31T05:48:46.592Z,10.07
2023-03-31T05:51:14.659Z,10.12
2023-03-31T05:53:43.074Z,10.11
2023-03-31T05:56:12.184Z,10.15
2023-03-31T05:58:40.551Z,10.24
2023-03-31T06:01:10.421Z,10.28
2023-03-31T06:03:41.813Z,10.26
2023-03-31T06:06:12.857Z,10.28
2023-03-31T06:08:40.523Z,10.28
2023-03-31T06:11:09.236Z,10.31
2023-03-31T06:13:37.815Z,10.33
2023-03-31T06:16:06.423Z,10.30
2023-03-31T06:18:35.939Z,10.28
2023-03-31T06:21:06.032Z,10.23
2023-03-31T06:23:34.428Z,10.29
2023-03-31T06:26:03.499Z,10.38
2023-03-31T06:28:31.586Z,10.56
2023-03-31T06:31:04.166Z,10.71
2023-03-31T06:33:32.441Z,10.87
2023-03-31T06:36:01.715Z,10.98
2023-03-31T06:38:31.349Z,11.06
2023-03-31T06:40:58.903Z,11.21
2023-03-31T06:43:26.493Z,11.24
2023-03-31T06:45:54.619Z,11.28
2023-03-31T06:48:23.822Z,11.22
2023-03-31T06:50:51.486Z,11.32
2023-03-31T06:53:19.050Z,11.34
2023-03-31T06:55:47.917Z,11.47
2023-03-31T06:58:15.689Z,11.44
2023-03-31T07:00:45.760Z,11.54
2023-03-31T07:03:14.306Z,11.66
2023-03-31T07:05:42.261Z,11.72
2023-03-31T07:08:09.827Z,11.84
2023-03-31T07:10:37.419Z,11.90
2023-03-31T07:13:06.436Z,12.00
2023-03-31T07:15:34.178Z,12.08
2023-03-31T07:18:02.918Z,12.23
2023-03-31T07:20:32.668Z,12.38
2023-03-31T07:23:00.268Z,12.46
2023-03-31T07:25:27.867Z,12.51
2023-03-31T07:27:55.547Z,12.42
2023-03-31T07:30:25.168Z,12.54
2023-03-31T07:32:54.444Z,12.57
2023-03-31T07:35:23.858Z,12.68
2023-03-31T07:37:52.244Z,12.85
2023-03-31T07:40:22.269Z,13.02
2023-03-31T07:42:52.028Z,13.19
2023-03-31T07:45:20.963Z,13.32
2023-03-31T07:47:50.507Z,13.41
2023-03-31T07:50:19.528Z,13.62
2023-03-31T07:52:48.821Z,13.53
2023-03-31T07:55:16.803Z,13.74
2023-03-31T07:57:46.312Z,13.73
2023-03-31T08:00:16.030Z,13.69
2023-03-31T08:02:44.502Z,13.58
2023-03-31T08:05:14.974Z,13.66
2023-03-31T08:07:44.969Z,13.62
2023-03-31T08:10:15.257Z,13.63
2023-03-31T08:12:43.374Z,13.72
2023-03-31T08:15:11.412Z,13.88
2023-03-31T08:17:39.815Z,13.87
2023-03-31T08:20:10.042Z,13.94
2023-03-31T08:22:40.172Z,14.28
2023-03-31T08:25:09.301Z,14.10
2023-03-31T08:27:38.574Z,14.16
2023-03-31T08:30:07.412Z,13.79
2023-03-31T08:32:35.858Z,13.83
2023-03-31T08:47:25.757Z,13.80
2023-03-31T08:49:59.337Z,13.84
2023-03-31T08:52:33.906Z,13.97
2023-03-31T08:55:06.666Z,14.10
2023-03-31T08:57:43.674Z,14.12
2023-03-31T09:00:17.517Z,14.15
2023-03-31T09:02:56.139Z,14.36
2023-03-31T09:05:57.332Z,14.49
2023-03-31T09:08:34.727Z,14.57
2023-03-31T09:11:11.439Z,14.55
2023-03-31T09:14:03.380Z,14.64
2023-03-31T09:16:36.806Z,14.73
2023-03-31T09:19:17.053Z,14.61
2023-03-31T09:21:47.927Z,14.68
2023-03-31T09:24:21.006Z,14.76
2023-03-31T09:26:53.837Z,14.94
2023-03-31T09:29:27.227Z,14.79
2023-03-31T09:31:56.031Z,15.05
2023-03-31T09:34:31.245Z,15.12
2023-03-31T09:36:58.900Z,15.05
2023-03-31T09:39:27.254Z,15.05
2023-03-31T09:41:55.716Z,14.69
2023-03-31T09:44:28.362Z,14.72
2023-03-31T09:46:56.874Z,14.44
2023-03-31T09:49:29.459Z,14.06
2023-03-31T09:52:05.044Z,14.02
2023-03-31T09:54:47.529Z,14.13
2023-03-31T09:57:23.769Z,14.28
2023-03-31T09:59:52.447Z,14.40
2023-03-31T10:02:36.126Z,14.62
2023-03-31T10:05:06.849Z,14.33
2023-03-31T10:07:35.864Z,14.42
2023-03-31T10:10:05.288Z,14.45
2023-03-31T10:12:33.013Z,14.38
2023-03-31T10:15:18.170Z,14.55
2023-03-31T10:17:54.940Z,14.23
2023-03-31T10:20:34.033Z,14.46
2023-03-31T10:23:15.600Z,14.72
2023-03-31T10:25:43.929Z,15.08
2023-03-31T10:28:13.680Z,15.32
2023-03-31T10:30:41.938Z,15.43
2023-03-31T10:33:22.822Z,15.32
2023-03-31T10:35:58.586Z,15.38
2023-03-31T10:38:28.840Z,15.63
2023-03-31T10:40:58.634Z,15.68
2023-03-31T10:43:28.286Z,15.30
2023-03-31T10:45:57.178Z,15.58
2023-03-31T10:48:28.088Z,15.68
2023-03-31T10:51:01.139Z,15.20
2023-03-31T10:53:28.776Z,13.98
2023-03-31T10:56:24.568Z,12.37
2023-03-31T10:59:11.238Z,12.27
2023-03-31T11:01:50.551Z,12.22
2023-03-31T11:04:39.395Z,12.13
2023-03-31T11:07:18.754Z,11.76
2023-03-31T11:09:57.661Z,11.87
2023-03-31T11:12:32.462Z,11.62
2023-03-31T11:15:14.356Z,11.51
2023-03-31T11:17:57.386Z,11.41
2023-03-31T11:20:33.640Z,11.27
2023-03-31T11:23:13.170Z,11.34
2023-03-31T11:25:51.289Z,11.48
2023-03-31T11:28:59.814Z,11.66
2023-03-31T11:31:40.378Z,11.88
2023-03-31T11:34:19.834Z,12.01
2023-03-31T11:37:04.284Z,12.31
2023-03-31T11:39:49.134Z,12.49
2023-03-31T11:42:21.425Z,12.56
2023-03-31T11:44:53.888Z,12.84
2023-03-31T11:47:26.012Z,13.34
2023-03-31T11:49:56.862Z,14.09
2023-03-31T11:52:30.416Z,14.36
2023-03-31T11:55:03.792Z,14.50
2023-03-31T11:57:34.256Z,14.82
2023-03-31T12:00:12.817Z,14.91
2023-03-31T12:02:47.338Z,15.30
2023-03-31T12:05:17.744Z,15.43
2023-03-31T12:07:52.110Z,15.28
2023-03-31T12:10:23.866Z,15.15
2023-03-31T12:12:56.761Z,15.25
2023-03-31T12:15:28.295Z,15.06
2023-03-31T12:18:01.342Z,15.12
2023-03-31T12:20:34.488Z,14.84
2023-03-31T12:23:04.978Z,14.67
2023-03-31T12:25:44.508Z,14.49
2023-03-31T12:28:13.097Z,14.44
2023-03-31T12:30:43.224Z,14.48
2023-03-31T12:33:17.460Z,14.50
2023-03-31T12:35:58.980Z,14.53
2023-03-31T12:38:37.592Z,14.72
2023-03-31T12:41:14.844Z,14.63
2023-03-31T12:44:09.286Z,15.01
2023-03-31T12:47:02.297Z,15.10
2023-03-31T12:49:47.058Z,14.66
2023-03-31T12:52:22.449Z,15.36
2023-03-31T12:55:09.457Z,14.77
2023-03-31T12:57:38.340Z,15.18
2023-03-31T13:00:25.874Z,15.28
2023-03-31T13:03:37.182Z,14.88
2023-03-31T13:06:06.402Z,14.81
2023-03-31T13:08:55.041Z,14.49
2023-03-31T13:11:35.761Z,14.91
2023-03-31T13:14:07.937Z,15.82
2023-03-31T13:16:37.024Z,17.75
2023-03-31T13:19:04.939Z,17.36
2023-03-31T13:21:32.740Z,17.26
2023-03-31T13:24:01.684Z,17.45
2023-03-31T13:26:40.807Z,18.28
2023-03-31T13:29:21.682Z,18.92
2023-03-31T13:32:20.669Z,19.40
2023-03-31T13:35:00.670Z,18.26
2023-03-31T13:37:46.902Z,18.99
2023-03-31T13:40:35.593Z,19.52
2023-03-31T13:43:23.702Z,18.87
2023-03-31T13:46:10.305Z,18.77
2023-03-31T13:48:45.235Z,19.59
2023-03-31T13:51:33.310Z,19.00
2023-03-31T13:54:52.936Z,18.00
2023-03-31T13:57:39.326Z,17.44
2023-03-31T14:00:29.456Z,18.23
2023-03-31T14:03:28.260Z,18.22
2023-03-31T14:06:00.705Z,18.25
2023-03-31T14:08:40.670Z,18.84
2023-03-31T14:11:17.877Z,17.86
2023-03-31T14:13:45.658Z,17.75
2023-03-31T14:16:15.733Z,17.88
2023-03-31T14:18:54.618Z,17.41
2023-03-31T14:21:29.449Z,18.04
2023-03-31T14:24:06.015Z,17.24
2023-03-31T14:26:50.303Z,16.37
2023-03-31T14:29:24.172Z,15.79
2023-03-31T14:32:00.653Z,14.67
2023-03-31T14:34:42.957Z,14.36
2023-03-31T14:37:13.697Z,14.36
2023-03-31T14:39:44.476Z,14.26
2023-03-31T14:42:14.712Z,14.59
2023-03-31T14:44:46.872Z,14.47
2023-03-31T14:47:16.698Z,14.68
2023-03-31T14:49:46.149Z,15.64
2023-03-31T14:52:16.980Z,15.60
2023-03-31T14:54:47.266Z,16.24
2023-03-31T14:57:19.188Z,17.09
2023-03-31T14:59:48.840Z,16.91
2023-03-31T15:02:21.146Z,17.25
2023-03-31T15:04:51.741Z,16.92
2023-03-31T15:07:19.473Z,15.70
2023-03-31T15:09:51.224Z,15.86
2023-03-31T15:12:21.945Z,15.52
2023-03-31T15:14:52.193Z,15.07
2023-03-31T15:17:22.073Z,14.66
2023-03-31T15:19:56.137Z,14.66
2023-03-31T15:22:25.892Z,14.20
2023-03-31T15:24:53.979Z,13.69
2023-03-31T15:27:36.674Z,13.59
2023-03-31T15:30:07.635Z,13.50
2023-03-31T15:32:37.444Z,13.67
2023-03-31T15:35:20.897Z,14.05
2023-03-31T15:37:52.177Z,14.50
2023-03-31T15:40:23.743Z,14.67
2023-03-31T15:43:06.369Z,14.62
2023-03-31T15:45:52.632Z,14.77
2023-03-31T15:48:24.474Z,14.82
2023-03-31T15:50:54.072Z,14.68
2023-03-31T15:53:28.837Z,14.47
2023-03-31T15:55:59.578Z,14.23
2023-03-31T15:58:56.570Z,14.03
2023-03-31T16:01:29.258Z,13.96
2023-03-31T16:03:57.766Z,14.04
2023-03-31T16:06:34.800Z,14.02
2023-03-31T16:09:05.791Z,13.70
2023-03-31T16:11:38.716Z,13.62
2023-03-31T16:14:11.011Z,13.72
2023-03-31T16:16:39.507Z,13.48
2023-03-31T16:19:10.239Z,13.49
2023-03-31T16:21:42.839Z,13.59
2023-03-31T16:24:11.160Z,13.39
2023-03-31T16:26:39.140Z,13.34
2023-03-31T16:29:06.956Z,13.22
2023-03-31T16:31:37.768Z,13.11
2023-03-31T16:34:07.743Z,13.17
2023-03-31T16:36:35.781Z,12.94
2023-03-31T16:39:06.286Z,12.91
2023-03-31T16:41:35.309Z,12.78
2023-03-31T16:44:03.225Z,12.48
2023-03-31T16:46:30.929Z,12.44
2023-03-31T16:48:58.612Z,12.34
2023-03-31T16:51:26.274Z,12.25
2023-03-31T16:53:54.006Z,12.27
2023-03-31T16:56:24.566Z,12.04
2023-03-31T16:58:53.702Z,11.98
2023-03-31T17:01:21.379Z,11.95
2023-03-31T17:03:49.266Z,11.99
2023-03-31T17:06:16.930Z,11.98
2023-03-31T17:08:44.512Z,11.92
2023-03-31T17:11:14.202Z,11.73
2023-03-31T17:13:44.506Z,11.64
2023-03-31T17:16:21.944Z,11.48
2023-03-31T17:18:56.866Z,11.21
2023-03-31T17:21:24.577Z,10.72
2023-03-31T17:23:52.209Z,10.16
2023-03-31T17:26:20.088Z,10.02
2023-03-31T17:28:49.097Z,9.83
2023-03-31T17:31:19.894Z,9.74
2023-03-31T17:33:48.365Z,9.78
2023-03-31T17:36:16.530Z,9.71
2023-03-31T17:38:44.811Z,9.72
2023-03-31T17:41:14.380Z,9.70
2023-03-31T17:43:45.797Z,9.70
2023-03-31T17:46:15.306Z,9.64
2023-03-31T17:48:43.593Z,9.68
2023-03-31T17:51:14.748Z,9.70
2023-03-31T17:53:43.121Z,9.73
2023-03-31T17:56:10.967Z,9.73
2023-03-31T17:58:39.412Z,9.76
2023-03-31T18:01:07.914Z,9.76
2023-03-31T18:03:37.403Z,9.76
2023-03-31T18:06:06.462Z,9.76
2023-03-31T18:08:34.655Z,9.74
2023-03-31T18:11:04.807Z,9.77
2023-03-31T18:13:32.759Z,9.73
2023-03-31T18:16:00.318Z,9.80
2023-03-31T18:18:28.914Z,9.87
2023-03-31T18:20:58.010Z,9.89
2023-03-31T18:23:25.572Z,9.93
2023-03-31T18:25:53.157Z,10.01
2023-03-31T18:28:20.851Z,10.13
2023-03-31T18:30:48.643Z,10.31
2023-03-31T18:33:16.519Z,10.45
2023-03-31T18:35:45.215Z,10.53
2023-03-31T18:38:14.139Z,10.68
2023-03-31T18:40:49.563Z,10.77
2023-03-31T18:43:18.265Z,11.04
2023-03-31T18:45:49.187Z,11.03
2023-03-31T18:48:17.795Z,11.18
2023-03-31T18:50:45.885Z,11.24
2023-03-31T18:53:16.020Z,11.30
2023-03-31T18:55:43.717Z,11.36
2023-03-31T18:58:11.293Z,11.41
2023-03-31T19:00:38.908Z,11.41
2023-03-31T19:03:06.766Z,11.50
2023-03-31T19:05:34.936Z,11.59
2023-03-31T19:08:02.757Z,11.58
2023-03-31T19:10:31.793Z,11.69
2023-03-31T19:12:59.734Z,11.70
2023-03-31T19:15:27.815Z,11.82
2023-03-31T19:17:56.256Z,11.86
2023-03-31T19:20:23.899Z,11.90
2023-03-31T19:22:52.551Z,11.93
2023-03-31T19:25:21.444Z,11.92
2023-03-31T19:27:50.355Z,11.81
2023-03-31T19:30:20.117Z,11.67
2023-03-31T19:32:48.928Z,11.45
2023-03-31T19:35:16.691Z,11.23
2023-03-31T19:37:44.569Z,11.03
2023-03-31T19:40:12.961Z,11.02
2023-03-31T19:42:41.955Z,11.00
2023-03-31T19:45:11.523Z,10.97
2023-03-31T19:47:39.293Z,10.95
2023-03-31T19:50:08.409Z,10.96
2023-03-31T19:52:36.476Z,11.00
2023-03-31T19:55:04.813Z,10.97
2023-03-31T19:57:32.613Z,10.95
2023-03-31T20:00:01.068Z,10.97
2023-03-31T20:02:34.088Z,10.97
2023-03-31T20:05:01.864Z,10.92
2023-03-31T20:07:30.006Z,10.95
2023-03-31T20:09:57.524Z,10.91
2023-03-31T20:12:25.207Z,10.89
2023-03-31T20:14:53.257Z,10.92
2023-03-31T20:17:21.096Z,10.97
2023-03-31T20:19:49.968Z,11.00
2023-03-31T20:22:17.567Z,11.11
2023-03-31T20:24:45.211Z,11.12
2023-03-31T20:27:12.831Z,11.18
2023-03-31T20:29:40.743Z,11.13
2023-03-31T20:32:08.929Z,11.11
2023-03-31T20:34:36.469Z,11.08
2023-03-31T20:37:05.313Z,11.11
2023-03-31T20:39:32.919Z,11.12
2023-03-31T20:42:00.534Z,11.11
2023-03-31T20:44:28.442Z,11.09
2023-03-31T20:46:58.906Z,11.09
2023-03-31T20:49:26.796Z,11.08
2023-03-31T20:51:54.612Z,11.08
2023-03-31T20:54:23.544Z,11.18
2023-03-31T20:56:51.672Z,11.17
2023-03-31T20:59:19.529Z,11.16
2023-03-31T21:01:49.442Z,11.20
2023-03-31T21:04:17.745Z,11.26
2023-03-31T21:06:47.069Z,11.30
2023-03-31T21:09:16.127Z,11.33
2023-03-31T21:11:45.761Z,11.41
2023-03-31T21:14:15.103Z,11.36
2023-03-31T21:16:43.105Z,11.38
2023-03-31T21:19:11.155Z,11.36
2023-03-31T21:21:40.928Z,11.42
2023-03-31T21:24:09.374Z,11.42
2023-03-31T21:26:36.949Z,11.35
2023-03-31T21:29:05.895Z,11.36
2023-03-31T21:31:33.549Z,11.24
2023-03-31T21:34:02.500Z,11.23
2023-03-31T21:36:30.291Z,11.07
2023-03-31T21:38:58.159Z,11.10
2023-03-31T21:41:27.876Z,11.04
2023-03-31T21:43:55.532Z,11.02
2023-03-31T21:46:27.306Z,10.94
2023-03-31T21:48:56.273Z,10.93
2023-03-31T21:51:24.574Z,10.89
2023-03-31T21:53:55.384Z,10.86
2023-03-31T21:56:23.857Z,10.90
2023-03-31T21:58:51.816Z,10.86
2023-03-31T22:01:20.443Z,10.90
2023-03-31T22:03:49.653Z,10.86
2023-03-31T22:06:17.426Z,10.87
2023-03-31T22:08:45.553Z,10.82
2023-03-31T22:11:13.812Z,10.82
2023-03-31T22:13:41.651Z,10.81
2023-03-31T22:16:16.807Z,10.79
2023-03-31T22:18:44.801Z,10.77
2023-03-31T22:21:19.490Z,10.74
2023-03-31T22:23:47.243Z,10.74
2023-03-31T22:26:14.923Z,10.77
2023-03-31T22:28:42.746Z,10.78
2023-03-31T22:31:10.371Z,10.78
2023-03-31T22:33:37.900Z,10.83
2023-03-31T22:36:06.165Z,10.85
2023-03-31T22:38:35.207Z,10.89
2023-03-31T22:41:02.781Z,10.92
2023-03-31T22:43:30.512Z,10.92
2023-03-31T22:45:58.156Z,10.94
2023-03-31T22:48:26.187Z,10.95
2023-03-31T22:50:53.757Z,10.97
2023-03-31T22:53:22.267Z,10.97
2023-03-31T22:55:54.123Z,11.04
2023-03-31T22:58:22.513Z,11.03
2023-03-31T23:00:56.135Z,11.03
2023-03-31T23:03:23.830Z,11.02
2023-03-31T23:05:51.325Z,10.99
2023-03-31T23:08:19.437Z,10.99
2023-03-31T23:10:57.574Z,11.06
2023-03-31T23:13:25.653Z,11.05
2023-03-31T23:15:53.503Z,11.03
2023-03-31T23:18:21.932Z,11.04
2023-03-31T23:20:49.870Z,11.02
2023-03-31T23:23:17.575Z,11.05
2023-03-31T23:25:45.267Z,11.05
2023-03-31T23:28:14.261Z,11.08
2023-03-31T23:30:41.905Z,11.07
2023-03-31T23:33:09.860Z,11.05
2023-03-31T23:35:37.816Z,11.07
2023-03-31T23:38:05.539Z,11.03
2023-03-31T23:40:33.096Z,11.03
2023-03-31T23:43:00.753Z,11.09
2023-03-31T23:45:29.909Z,11.04
2023-03-31T23:47:58.726Z,11.14
2023-03-31T23:50:26.849Z,11.10
2023-03-31T23:52:55.503Z,11.12
2023-03-31T23:55:23.262Z,11.10
2023-03-31T23:57:50.943Z,11.03
